createdAt,value
2019-03-24T00:00:48.252Z,104.23
2019-03-24T00:03:17.669Z,93.93
2019-03-24T00:05:47.193Z,101.13
2019-03-24T00:08:16.650Z,91.73
2019-03-24T00:10:45.991Z,91.90
2019-03-24T00:13:15.423Z,86.73
2019-03-24T00:15:44.970Z,88.93
2019-03-24T00:18:15.275Z,89.50
2019-03-24T00:20:44.736Z,91.67
2019-03-24T00:23:14.166Z,88.23
2019-03-24T00:25:43.591Z,95.57
2019-03-24T00:28:12.928Z,89.07
2019-03-24T00:30:42.362Z,96.85
2019-03-24T00:33:11.883Z,98.50
2019-03-24T00:35:41.310Z,84.23
2019-03-24T00:38:10.798Z,94.97
2019-03-24T00:40:40.268Z,96.65
2019-03-24T00:43:09.655Z,95.23
2019-03-24T00:45:39.054Z,97.20
2019-03-24T00:48:08.323Z,85.50
2019-03-24T00:50:37.886Z,89.83
2019-03-24T00:53:07.515Z,94.05
2019-03-24T00:55:37.120Z,89.90
2019-03-24T00:58:06.660Z,85.80
2019-03-24T01:01:01.204Z,93.33
2019-03-24T01:03:30.707Z,83.80
2019-03-24T01:06:01.870Z,85.87
2019-03-24T01:08:31.295Z,86.05
2019-03-24T01:11:00.777Z,92.87
2019-03-24T01:13:30.164Z,91.63
2019-03-24T01:15:59.656Z,87.27
2019-03-24T01:18:29.086Z,89.33
2019-03-24T01:20:58.513Z,90.90
2019-03-24T01:23:27.965Z,85.73
2019-03-24T01:25:57.568Z,84.53
2019-03-24T01:28:26.961Z,78.23
2019-03-24T01:30:56.446Z,89.03
2019-03-24T01:33:25.919Z,82.30
2019-03-24T01:35:55.367Z,89.93
2019-03-24T01:38:24.903Z,92.03
2019-03-24T01:40:54.398Z,98.33
2019-03-24T01:43:23.821Z,93.27
2019-03-24T01:45:58.570Z,98.33
2019-03-24T01:48:24.470Z,87.70
2019-03-24T01:50:53.929Z,90.07
2019-03-24T01:53:23.308Z,78.57
2019-03-24T01:55:52.751Z,88.20
2019-03-24T01:58:22.294Z,92.73
2019-03-24T02:00:52.024Z,88.77
2019-03-24T02:03:21.531Z,86.03
2019-03-24T02:05:51.170Z,83.17
2019-03-24T02:08:20.663Z,93.00
2019-03-24T02:10:50.078Z,97.77
2019-03-24T02:13:19.491Z,101.77
2019-03-24T02:15:48.934Z,104.67
2019-03-24T02:18:18.236Z,94.07
2019-03-24T02:20:47.777Z,101.33
2019-03-24T02:23:17.194Z,92.93
2019-03-24T02:25:46.621Z,94.03
2019-03-24T02:28:17.470Z,105.77
2019-03-24T02:30:46.949Z,96.90
2019-03-24T02:33:16.353Z,103.77
2019-03-24T02:35:45.877Z,103.57
2019-03-24T02:38:15.498Z,99.90
2019-03-24T02:40:45.044Z,108.20
2019-03-24T02:43:14.386Z,106.53
2019-03-24T02:45:43.911Z,102.83
2019-03-24T02:48:13.509Z,107.67
2019-03-24T02:50:43.014Z,106.57
2019-03-24T02:53:12.480Z,96.20
2019-03-24T02:55:41.999Z,93.10
2019-03-24T02:58:11.332Z,97.80
2019-03-24T03:00:40.896Z,94.37
2019-03-24T03:03:10.443Z,84.83
2019-03-24T03:05:39.832Z,101.33
2019-03-24T03:08:09.472Z,91.17
2019-03-24T03:10:38.970Z,89.53
2019-03-24T03:13:08.521Z,87.80
2019-03-24T03:15:38.083Z,105.47
2019-03-24T03:18:07.686Z,103.37
2019-03-24T03:20:37.267Z,105.73
2019-03-24T03:23:06.790Z,95.53
2019-03-24T03:25:36.293Z,98.90
2019-03-24T03:28:05.914Z,89.90
2019-03-24T03:30:35.414Z,109.30
2019-03-24T03:33:04.962Z,103.67
2019-03-24T03:35:34.303Z,96.97
2019-03-24T03:38:03.805Z,89.97
2019-03-24T03:40:33.318Z,98.83
2019-03-24T03:43:02.927Z,97.90
2019-03-24T03:45:32.418Z,86.80
2019-03-24T03:48:01.798Z,88.83
2019-03-24T03:50:31.097Z,91.07
2019-03-24T03:53:00.567Z,93.12
2019-03-24T03:55:30.066Z,91.23
2019-03-24T03:57:59.394Z,89.50
2019-03-24T04:00:36.031Z,87.20
2019-03-24T04:03:07.073Z,95.47
2019-03-24T04:05:36.711Z,92.63
2019-03-24T04:08:06.252Z,89.37
2019-03-24T04:10:35.751Z,98.03
2019-03-24T04:13:05.517Z,90.83
2019-03-24T04:15:35.024Z,101.33
2019-03-24T04:18:04.630Z,98.07
2019-03-24T04:20:34.111Z,115.97
2019-03-24T04:23:03.592Z,85.17
2019-03-24T04:25:33.132Z,90.27
2019-03-24T04:28:02.567Z,87.10
2019-03-24T04:30:32.065Z,92.53
2019-03-24T04:33:01.466Z,91.80
2019-03-24T04:35:30.775Z,94.47
2019-03-24T04:38:00.291Z,87.23
2019-03-24T04:40:29.704Z,97.63
2019-03-24T04:42:59.247Z,94.30
2019-03-24T04:45:28.713Z,85.10
2019-03-24T04:47:58.186Z,91.00
2019-03-24T04:50:27.570Z,89.33
2019-03-24T04:52:56.999Z,93.30
2019-03-24T04:55:26.426Z,87.97
2019-03-24T04:57:55.853Z,93.70
2019-03-24T05:00:35.980Z,97.40
2019-03-24T05:03:05.478Z,92.47
2019-03-24T05:05:35.353Z,94.67
2019-03-24T05:08:05.398Z,95.60
2019-03-24T05:10:35.222Z,102.77
2019-03-24T05:13:05.167Z,105.20
2019-03-24T05:15:34.587Z,99.53
2019-03-24T05:18:04.194Z,94.87
2019-03-24T05:20:33.786Z,79.67
2019-03-24T05:23:03.245Z,82.87
2019-03-24T05:25:32.685Z,84.03
2019-03-24T05:28:02.097Z,93.97
2019-03-24T05:30:31.532Z,89.17
2019-03-24T05:33:00.930Z,86.83
2019-03-24T05:35:30.364Z,85.80
2019-03-24T05:37:59.845Z,87.33
2019-03-24T05:40:29.372Z,85.40
2019-03-24T05:42:58.754Z,84.77
2019-03-24T05:45:28.168Z,86.33
2019-03-24T05:47:57.568Z,85.03
2019-03-24T05:50:27.199Z,76.73
2019-03-24T05:52:56.626Z,78.00
2019-03-24T05:55:26.125Z,80.07
2019-03-24T05:57:55.646Z,90.37
2019-03-24T06:00:24.972Z,88.70
2019-03-24T06:02:54.342Z,78.93
2019-03-24T06:05:23.810Z,76.87
2019-03-24T06:07:53.301Z,84.30
2019-03-24T06:10:22.747Z,92.60
2019-03-24T06:12:52.218Z,86.13
2019-03-24T06:15:21.744Z,85.70
2019-03-24T06:17:51.026Z,79.73
2019-03-24T06:20:20.561Z,76.33
2019-03-24T06:22:49.996Z,75.17
2019-03-24T06:25:19.555Z,71.47
2019-03-24T06:27:48.979Z,76.03
2019-03-24T06:30:18.625Z,89.30
2019-03-24T06:32:48.067Z,77.73
2019-03-24T06:35:17.530Z,76.23
2019-03-24T06:37:46.943Z,75.10
2019-03-24T06:40:16.420Z,82.90
2019-03-24T06:42:45.833Z,74.17
2019-03-24T06:45:15.383Z,82.17
2019-03-24T06:47:44.903Z,80.40
2019-03-24T06:50:14.931Z,82.87
2019-03-24T06:52:44.427Z,75.07
2019-03-24T06:55:13.911Z,88.70
2019-03-24T06:57:44.288Z,78.20
2019-03-24T07:00:13.996Z,77.67
2019-03-24T07:02:43.537Z,80.83
2019-03-24T07:05:13.220Z,86.60
2019-03-24T07:07:42.642Z,86.77
2019-03-24T07:10:12.785Z,83.77
2019-03-24T07:12:42.417Z,85.93
2019-03-24T07:15:12.890Z,86.17
2019-03-24T07:17:42.321Z,87.90
2019-03-24T07:20:12.046Z,79.47
2019-03-24T07:22:41.637Z,87.63
2019-03-24T07:25:11.424Z,83.80
2019-03-24T07:27:40.867Z,90.00
2019-03-24T07:30:11.071Z,80.33
2019-03-24T07:32:40.473Z,83.83
2019-03-24T07:35:10.259Z,85.60
2019-03-24T07:37:39.795Z,82.70
2019-03-24T07:40:09.915Z,80.23
2019-03-24T07:42:39.453Z,82.10
2019-03-24T07:45:09.624Z,82.20
2019-03-24T07:47:39.160Z,82.30
2019-03-24T07:50:10.684Z,75.95
2019-03-24T07:52:40.292Z,85.60
2019-03-24T07:55:10.265Z,74.10
2019-03-24T07:57:39.708Z,78.80
2019-03-24T08:00:10.229Z,70.67
2019-03-24T08:02:50.866Z,74.93
2019-03-24T08:05:12.805Z,68.43
2019-03-24T08:07:42.304Z,72.87
2019-03-24T08:10:12.404Z,73.40
2019-03-24T08:12:42.003Z,78.00
2019-03-24T08:15:11.646Z,76.50
2019-03-24T08:17:40.990Z,72.47
2019-03-24T08:20:12.365Z,68.30
2019-03-24T08:22:42.214Z,73.30
2019-03-24T08:25:12.053Z,65.23
2019-03-24T08:27:41.519Z,66.67
2019-03-24T08:30:11.265Z,69.67
2019-03-24T08:32:40.691Z,65.32
2019-03-24T08:35:10.838Z,76.97
2019-03-24T08:37:40.360Z,72.13
2019-03-24T08:40:09.923Z,72.30
2019-03-24T08:42:39.483Z,71.53
2019-03-24T08:45:13.197Z,73.40
2019-03-24T08:47:42.605Z,70.43
2019-03-24T08:50:12.184Z,68.83
2019-03-24T08:52:41.618Z,62.53
2019-03-24T08:55:11.079Z,71.17
2019-03-24T08:57:40.660Z,65.17
2019-03-24T09:00:10.157Z,63.67
2019-03-24T09:02:39.582Z,66.43
2019-03-24T09:05:09.158Z,71.37
2019-03-24T09:07:38.809Z,61.28
2019-03-24T09:10:09.279Z,63.90
2019-03-24T09:12:38.710Z,59.67
2019-03-24T09:15:08.450Z,65.47
2019-03-24T09:17:38.061Z,67.47
2019-03-24T09:20:08.088Z,56.40
2019-03-24T09:22:37.532Z,66.73
2019-03-24T09:25:07.572Z,69.93
2019-03-24T09:27:37.206Z,59.77
2019-03-24T09:30:09.109Z,61.80
2019-03-24T09:32:38.690Z,57.80
2019-03-24T09:35:08.452Z,52.43
2019-03-24T09:37:37.974Z,54.10
2019-03-24T09:40:09.640Z,50.00
2019-03-24T09:42:39.036Z,52.97
2019-03-24T09:45:08.646Z,55.33
2019-03-24T09:47:38.183Z,54.10
2019-03-24T09:50:07.736Z,58.28
2019-03-24T09:52:37.145Z,50.27
2019-03-24T09:55:06.971Z,55.20
2019-03-24T09:57:36.514Z,51.33
2019-03-24T10:00:06.196Z,55.10
2019-03-24T10:02:35.791Z,56.43
2019-03-24T10:05:05.878Z,50.57
2019-03-24T10:07:35.437Z,49.67
2019-03-24T10:10:05.474Z,47.03
2019-03-24T10:12:34.902Z,47.00
2019-03-24T10:15:04.441Z,56.40
2019-03-24T10:17:34.028Z,50.37
2019-03-24T10:20:03.624Z,50.90
2019-03-24T10:22:33.058Z,55.17
2019-03-24T10:25:02.464Z,53.60
2019-03-24T10:27:32.039Z,51.63
2019-03-24T10:30:01.527Z,54.63
2019-03-24T10:32:31.047Z,55.70
2019-03-24T10:35:00.607Z,50.30
2019-03-24T10:37:30.717Z,51.83
2019-03-24T10:40:00.188Z,53.50
2019-03-24T10:42:29.656Z,51.23
2019-03-24T10:44:59.012Z,54.63
2019-03-24T10:47:28.395Z,53.27
2019-03-24T10:49:57.811Z,55.40
2019-03-24T10:52:27.350Z,48.63
2019-03-24T10:54:56.882Z,54.53
2019-03-24T10:57:26.325Z,47.97
2019-03-24T10:59:55.820Z,47.63
2019-03-24T11:02:25.356Z,52.90
2019-03-24T11:04:54.755Z,50.60
2019-03-24T11:07:24.603Z,55.40
2019-03-24T11:09:54.152Z,58.63
2019-03-24T11:12:23.576Z,58.20
2019-03-24T11:14:53.208Z,56.93
2019-03-24T11:17:22.832Z,57.93
2019-03-24T11:19:52.294Z,48.57
2019-03-24T11:22:21.902Z,54.13
2019-03-24T11:24:51.519Z,55.63
2019-03-24T11:27:20.973Z,53.70
2019-03-24T11:29:50.444Z,55.07
2019-03-24T11:32:19.929Z,52.63
2019-03-24T11:34:49.268Z,53.43
2019-03-24T11:37:18.709Z,50.03
2019-03-24T11:39:48.233Z,49.10
2019-03-24T11:42:17.736Z,53.13
2019-03-24T11:44:47.160Z,55.63
2019-03-24T11:47:26.171Z,47.93
2019-03-24T11:49:49.123Z,46.13
2019-03-24T11:52:18.827Z,53.90
2019-03-24T11:54:48.295Z,47.20
2019-03-24T11:57:17.750Z,49.33
2019-03-24T11:59:47.332Z,49.30
2019-03-24T12:02:16.811Z,47.00
2019-03-24T12:04:46.304Z,61.87
2019-03-24T12:07:15.804Z,51.03
2019-03-24T12:09:45.197Z,55.07
2019-03-24T12:12:14.699Z,50.87
2019-03-24T12:14:44.116Z,49.80
2019-03-24T12:17:13.573Z,50.40
2019-03-24T12:19:42.879Z,54.13
2019-03-24T12:22:12.283Z,51.37
2019-03-24T12:24:41.938Z,55.63
2019-03-24T12:27:11.314Z,54.77
2019-03-24T12:29:40.756Z,44.77
2019-03-24T12:32:10.105Z,50.23
2019-03-24T12:34:39.528Z,38.97
2019-03-24T12:37:08.855Z,40.40
2019-03-24T12:39:38.304Z,41.00
2019-03-24T12:42:07.852Z,39.40
2019-03-24T12:44:37.399Z,41.97
2019-03-24T12:47:07.000Z,30.90
2019-03-24T12:49:36.365Z,33.10
2019-03-24T12:52:05.789Z,34.67
2019-03-24T12:54:35.269Z,28.87
2019-03-24T12:57:04.720Z,36.33
2019-03-24T12:59:34.226Z,41.40
2019-03-24T13:02:03.998Z,36.13
2019-03-24T13:04:33.420Z,33.63
2019-03-24T13:07:02.937Z,35.23
2019-03-24T13:09:33.678Z,37.20
2019-03-24T13:12:03.251Z,34.70
2019-03-24T13:14:33.431Z,36.57
2019-03-24T13:17:03.223Z,35.10
2019-03-24T13:19:32.714Z,39.48
2019-03-24T13:22:02.391Z,33.70
2019-03-24T13:24:31.816Z,39.70
2019-03-24T13:27:01.342Z,37.57
2019-03-24T13:29:30.904Z,40.57
2019-03-24T13:32:00.311Z,33.80
2019-03-24T13:34:29.863Z,38.47
2019-03-24T13:36:59.405Z,38.83
2019-03-24T13:39:28.907Z,39.33
2019-03-24T13:41:58.390Z,42.33
2019-03-24T13:44:27.773Z,37.37
2019-03-24T13:46:57.279Z,38.10
2019-03-24T13:49:26.768Z,31.50
2019-03-24T13:51:56.239Z,38.07
2019-03-24T13:54:25.677Z,37.57
2019-03-24T13:56:55.199Z,34.07
2019-03-24T13:59:24.735Z,34.23
2019-03-24T14:01:54.183Z,33.03
2019-03-24T14:04:23.738Z,31.53
2019-03-24T14:06:53.254Z,36.17
2019-03-24T14:09:22.724Z,36.00
2019-03-24T14:11:52.233Z,33.23
2019-03-24T14:14:21.693Z,34.87
2019-03-24T14:16:52.465Z,38.17
2019-03-24T14:19:21.979Z,34.33
2019-03-24T14:21:51.554Z,36.47
2019-03-24T14:24:20.978Z,33.97
2019-03-24T14:26:50.416Z,35.47
2019-03-24T14:29:19.818Z,32.20
2019-03-24T14:31:49.387Z,32.93
2019-03-24T14:34:18.697Z,32.43
2019-03-24T14:36:48.082Z,33.87
2019-03-24T14:39:17.650Z,36.63
2019-03-24T14:41:47.189Z,35.90
2019-03-24T14:44:16.716Z,33.63
2019-03-24T14:46:46.175Z,27.47
2019-03-24T14:49:15.722Z,31.20
2019-03-24T14:51:45.253Z,30.83
2019-03-24T14:54:14.771Z,34.17
2019-03-24T14:56:44.327Z,31.93
2019-03-24T14:59:13.840Z,28.87
2019-03-24T15:01:43.395Z,27.30
2019-03-24T15:04:12.885Z,25.83
2019-03-24T15:06:42.403Z,31.33
2019-03-24T15:09:11.963Z,27.77
2019-03-24T15:11:41.469Z,28.87
2019-03-24T15:14:11.023Z,23.97
2019-03-24T15:16:40.418Z,22.03
2019-03-24T15:19:10.022Z,17.37
2019-03-24T15:21:39.594Z,22.97
2019-03-24T15:24:09.149Z,17.17
2019-03-24T15:26:38.743Z,17.20
2019-03-24T15:29:08.259Z,18.03
2019-03-24T15:31:37.774Z,13.63
2019-03-24T15:34:07.224Z,20.80
2019-03-24T15:36:36.679Z,24.07
2019-03-24T15:39:09.197Z,15.10
2019-03-24T15:41:38.761Z,16.63
2019-03-24T15:44:08.255Z,17.53
2019-03-24T15:46:37.768Z,21.83
2019-03-24T15:49:07.235Z,15.73
2019-03-24T15:51:36.721Z,14.67
2019-03-24T15:54:06.222Z,16.57
2019-03-24T15:56:35.686Z,18.37
2019-03-24T15:59:05.267Z,16.77
2019-03-24T16:01:34.791Z,14.27
2019-03-24T16:04:04.318Z,15.07
2019-03-24T16:06:33.830Z,15.60
2019-03-24T16:09:04.626Z,12.47
2019-03-24T16:11:34.087Z,15.63
2019-03-24T16:14:03.650Z,12.87
2019-03-24T16:16:33.223Z,11.87
2019-03-24T16:19:02.751Z,11.27
2019-03-24T16:21:32.376Z,12.27
2019-03-24T16:24:01.722Z,10.90
2019-03-24T16:26:31.266Z,9.47
2019-03-24T16:29:00.756Z,13.37
2019-03-24T16:31:30.306Z,10.83
2019-03-24T16:33:59.844Z,10.60
2019-03-24T16:36:29.350Z,13.93
2019-03-24T16:39:03.429Z,10.57
2019-03-24T16:41:29.926Z,11.63
2019-03-24T16:43:59.437Z,10.17
2019-03-24T16:46:29.294Z,10.40
2019-03-24T16:48:58.775Z,11.70
2019-03-24T16:51:38.141Z,12.57
2019-03-24T16:53:59.416Z,11.13
2019-03-24T16:56:28.958Z,12.07
2019-03-24T16:58:58.367Z,15.83
2019-03-24T17:01:27.835Z,11.50
2019-03-24T17:03:57.371Z,14.00
2019-03-24T17:06:26.921Z,20.07
2019-03-24T17:08:56.399Z,17.13
2019-03-24T17:11:25.864Z,18.10
2019-03-24T17:13:55.275Z,12.37
2019-03-24T17:16:24.747Z,14.00
2019-03-24T17:18:54.331Z,15.23
2019-03-24T17:21:23.781Z,19.55
2019-03-24T17:23:53.123Z,18.07
2019-03-24T17:26:23.015Z,19.17
2019-03-24T17:28:52.297Z,15.97
2019-03-24T17:31:21.853Z,21.43
2019-03-24T17:33:51.313Z,20.53
2019-03-24T17:36:20.914Z,23.03
2019-03-24T17:38:50.369Z,24.53
2019-03-24T17:41:19.850Z,28.33
2019-03-24T17:43:49.289Z,27.37
2019-03-24T17:46:19.554Z,24.53
2019-03-24T17:48:49.091Z,29.93
2019-03-24T17:51:18.563Z,28.30
2019-03-24T17:53:48.075Z,29.47
2019-03-24T17:56:17.545Z,23.43
2019-03-24T17:58:46.870Z,33.30
2019-03-24T18:01:16.418Z,30.67
2019-03-24T18:03:45.908Z,37.87
2019-03-24T18:06:15.394Z,34.73
2019-03-24T18:08:44.896Z,27.22
2019-03-24T18:11:14.398Z,27.57
2019-03-24T18:13:43.827Z,34.23
2019-03-24T18:16:13.274Z,39.70
2019-03-24T18:18:42.786Z,39.87
2019-03-24T18:21:12.240Z,31.93
2019-03-24T18:23:41.795Z,34.90
2019-03-24T18:26:11.368Z,35.87
2019-03-24T18:28:40.932Z,35.90
2019-03-24T18:31:10.984Z,37.93
2019-03-24T18:33:40.491Z,39.67
2019-03-24T18:36:09.926Z,43.08
2019-03-24T18:38:40.787Z,40.13
2019-03-24T18:41:10.305Z,42.63
2019-03-24T18:43:39.886Z,37.20
2019-03-24T18:46:09.336Z,36.73
2019-03-24T18:48:38.924Z,31.47
2019-03-24T18:51:08.429Z,28.10
2019-03-24T18:53:37.886Z,35.20
2019-03-24T18:56:07.357Z,33.20
2019-03-24T18:58:36.869Z,27.33
2019-03-24T19:01:06.353Z,29.13
2019-03-24T19:03:35.904Z,30.70
2019-03-24T19:06:05.407Z,30.77
2019-03-24T19:08:34.837Z,36.90
2019-03-24T19:11:04.295Z,42.30
2019-03-24T19:13:33.785Z,38.67
2019-03-24T19:16:03.215Z,33.83
2019-03-24T19:18:32.713Z,28.30
2019-03-24T19:21:02.335Z,23.73
2019-03-24T19:23:32.083Z,20.60
2019-03-24T19:26:01.583Z,20.63
2019-03-24T19:28:31.054Z,19.33
2019-03-24T19:31:00.485Z,20.57
2019-03-24T19:33:30.322Z,19.02
2019-03-24T19:36:00.891Z,24.07
2019-03-24T19:38:33.663Z,19.93
2019-03-24T19:41:03.232Z,26.10
2019-03-24T19:43:32.652Z,24.67
2019-03-24T19:46:02.056Z,14.57
2019-03-24T19:48:31.606Z,16.00
2019-03-24T19:51:01.007Z,13.70
2019-03-24T19:53:30.475Z,17.17
2019-03-24T19:55:59.869Z,15.95
2019-03-24T19:58:29.423Z,16.83
2019-03-24T20:00:58.962Z,24.30
2019-03-24T20:03:28.357Z,20.53
2019-03-24T20:05:57.942Z,17.17
2019-03-24T20:08:27.497Z,16.77
2019-03-24T20:10:56.971Z,19.23
2019-03-24T20:13:26.363Z,27.47
2019-03-24T20:15:55.915Z,11.47
2019-03-24T20:18:25.385Z,12.80
2019-03-24T20:20:54.878Z,14.80
2019-03-24T20:23:24.277Z,10.70
2019-03-24T20:25:53.791Z,14.37
2019-03-24T20:28:23.358Z,9.50
2019-03-24T20:30:53.368Z,11.37
2019-03-24T20:33:22.845Z,11.77
2019-03-24T20:35:52.227Z,9.43
2019-03-24T20:38:21.965Z,11.27
2019-03-24T20:40:51.376Z,14.87
2019-03-24T20:43:20.830Z,15.90
2019-03-24T20:45:50.288Z,23.13
2019-03-24T20:48:19.870Z,12.00
2019-03-24T20:50:49.403Z,14.80
2019-03-24T20:53:18.836Z,12.97
2019-03-24T20:55:48.417Z,19.70
2019-03-24T20:58:17.839Z,12.07
2019-03-24T21:00:47.500Z,12.20
2019-03-24T21:03:16.858Z,13.40
2019-03-24T21:05:46.414Z,17.53
2019-03-24T21:08:16.067Z,13.23
2019-03-24T21:10:45.599Z,9.03
2019-03-24T21:13:15.032Z,8.80
2019-03-24T21:15:44.536Z,9.07
2019-03-24T21:18:13.942Z,18.73
2019-03-24T21:20:43.322Z,18.83
2019-03-24T21:23:12.689Z,10.33
2019-03-24T21:25:42.152Z,9.80
2019-03-24T21:28:11.619Z,10.63
2019-03-24T21:30:41.525Z,10.57
2019-03-24T21:33:11.077Z,9.60
2019-03-24T21:35:40.444Z,6.67
2019-03-24T21:38:10.145Z,12.10
2019-03-24T21:40:39.706Z,8.33
2019-03-24T21:43:09.285Z,11.80
2019-03-24T21:45:38.827Z,17.20
2019-03-24T21:48:08.483Z,10.40
2019-03-24T21:50:37.812Z,9.75
2019-03-24T21:53:07.476Z,13.73
2019-03-24T21:55:37.080Z,15.83
2019-03-24T21:58:06.770Z,13.53
2019-03-24T22:00:37.418Z,10.27
2019-03-24T22:03:08.027Z,16.57
2019-03-24T22:05:37.947Z,8.07
2019-03-24T22:08:07.581Z,9.83
2019-03-24T22:10:37.202Z,6.57
2019-03-24T22:13:06.851Z,13.13
2019-03-24T22:15:36.379Z,11.13
2019-03-24T22:18:06.573Z,11.57
2019-03-24T22:20:36.053Z,11.57
2019-03-24T22:23:05.605Z,9.00
2019-03-24T22:25:36.252Z,11.63
2019-03-24T22:28:05.873Z,8.53
2019-03-24T22:30:35.363Z,7.30
2019-03-24T22:33:04.809Z,12.73
2019-03-24T22:35:34.349Z,8.07
2019-03-24T22:38:03.832Z,6.20
2019-03-24T22:40:33.374Z,8.43
2019-03-24T22:43:02.803Z,6.60
2019-03-24T22:45:32.430Z,6.57
2019-03-24T22:48:01.970Z,9.70
2019-03-24T22:50:31.492Z,7.13
2019-03-24T22:53:00.875Z,8.73
2019-03-24T22:55:30.391Z,11.10
2019-03-24T22:57:59.879Z,6.93
2019-03-24T23:00:51.333Z,4.27
2019-03-24T23:03:20.998Z,6.70
2019-03-24T23:05:50.808Z,5.10
2019-03-24T23:08:20.320Z,6.87
2019-03-24T23:10:49.872Z,9.13
2019-03-24T23:13:19.428Z,4.33
2019-03-24T23:15:48.926Z,6.03
2019-03-24T23:18:18.407Z,6.77
2019-03-24T23:20:47.881Z,5.90
2019-03-24T23:23:17.335Z,9.40
2019-03-24T23:25:46.786Z,9.40
2019-03-24T23:28:16.194Z,12.00
2019-03-24T23:30:45.722Z,6.43
2019-03-24T23:33:16.052Z,9.68
2019-03-24T23:35:45.549Z,7.50
2019-03-24T23:38:15.027Z,7.10
2019-03-24T23:40:44.486Z,11.33
2019-03-24T23:43:13.963Z,6.25
2019-03-24T23:45:43.484Z,14.03
2019-03-24T23:48:13.021Z,8.23
2019-03-24T23:50:42.542Z,8.30
2019-03-24T23:53:12.001Z,8.53
2019-03-24T23:55:41.513Z,10.27
2019-03-24T23:58:10.874Z,14.25
